Hereford, AZ (85615)

3:28 PM MST on January 31, 2015 (GMT -0700)
Three Canyons Ranch | Change Station
CLOSE
Current Station
Personal Weather Station
Location: Hereford, AZ
Elevation: 4551 ft
Nearby Weather Stations

Elev 4551 ft 31.40 °N, 110.19 °W | Updated 28 seconds ago

Rain
Rain
56.8 °F
Feels Like 56.8 °F
N
6.0
Wind Variable Wind from South
Gusts 13.0 mph

Today
High -- | Low -- °F
--% Chance of Precip.
Yesterday
High -- | Low -- °F
Precip. -- in
7:14 AM 5:54 PM
Waxing Gibbous, 92% visible
Pressure 29.79 in
Visibility 10.0 miles
Clouds Few 3700 ft
Mostly Cloudy 5500 ft
Mostly Cloudy 11000 ft
Dew Point 45 °F
Humidity 65%
Rainfall 0.23 in
Snow Depth Not available.
UV 2 out of 12
Pollen .50 out of 12
Air Quality Not available.
Flu Activity Not available.
METAR KFHU 312156Z AUTO 31007KT 10SM FEW037 BKN055 BKN110 12/07 A2985 RMK AO2 RAE16 SLP086 P0000 T01220067 $

More Conditions Fewer Conditions

Pressure 29.79 in
Visibility 10.0 miles
Clouds Few 3700 ft
Mostly Cloudy 5500 ft
Mostly Cloudy 11000 ft
Dew Point 45 °F
Humidity 65%
Rainfall 0.23 in
Snow Depth Not available.
UV 2 out of 12
Pollen .50 out of 12
Air Quality Not available.
Flu Activity Not available.
METAR KFHU 312156Z AUTO 31007KT 10SM FEW037 BKN055 BKN110 12/07 A2985 RMK AO2 RAE16 SLP086 P0000 T01220067 $

More Conditions Fewer Conditions

Nowcast | as of 1:29 PM MST on January 31, 2015

Showers will continue for the mid afternoon across Arizona's southern tier. Isolates areas of the heavier rainfall will move through the Tucson Metro area and eastern Pima County. Other areas of moderate rain will move across the upper San Pedro River Valley. Elsewhere expect precipitation to remain light and brief with 0.08-0.15 inches an hour. An isolated thunderstorm is possible for Cochise County.

×

10-Day Weather Forecast

Almanac

Astronomy

Jan. 31, 2015 Rise Set
Actual Time
Civil Twilight
Nautical Twilight
Astronomical Twilight
Moon
Length of Visible Light
Length of Day
Tomorrow will be .
, % of the Moon is Illuminated

Today's Extremes

State Highs State Lows

Community

WunderPhotos

Upload Photos

1,792,225 photos uploaded!

WunderBlogs® & News

Nearby

Air Quality

  Air Quality AQ Index Pollutant
Not available.

Snow Depth

Station Depth Elevation

Earthquake Activity

City Distance Mag. Time & Date
Minimum magnitude displayed is 2.5.

Coastal Water Temperatures

Place Temperature

Nearby Weather Stations